METAR Data
IDs: Format: Raw Decoded Include TAF

Data at: 1857 UTC 26 Oct 2021

KSUZ 261855Z AUTO VRB06KT 10SM CLR 19/10 A2998 RMK A01
KSUZ 261815Z AUTO VRB06KT 10SM SCT050 18/10 A3000 RMK A01
KSUZ 261755Z AUTO 11007KT 10SM OVC050 17/10 A3001 RMK A01
KSUZ 261735Z AUTO 09007KT 10SM OVC050 16/09 A3004 RMK A01
KSUZ 261715Z AUTO 13007KT 10SM OVC050 16/09 A3005 RMK A01
KSUZ 261655Z AUTO 09004KT 10SM OVC055 15/09 A3007 RMK A01
KSUZ 261635Z AUTO 11005KT 10SM OVC055 15/09 A3008 RMK A01
KSUZ 261615Z AUTO 08004KT 10SM BKN050 OVC055 14/09 A3008 RMK A01
KSUZ 261555Z AUTO 09005KT 10SM OVC048 14/09 A3008 RMK A01
KSUZ 261535Z AUTO 13005KT 10SM BKN046 OVC050 14/09 A3009 RMK A01
KSUZ 261515Z AUTO 11005G10KT 10SM BKN047 14/08 A3009 RMK A01
KSUZ 261455Z AUTO 12009KT 10SM SCT049 13/08 A3009 RMK A01
KSUZ 261435Z AUTO 10007G13KT 10SM CLR 14/08 A3009 RMK A01
KSUZ 261415Z AUTO 06008KT 10SM CLR 13/09 A3008 RMK A01
KSUZ 261355Z AUTO 07006KT 10SM CLR 12/09 A3009 RMK A01
KSUZ 261335Z AUTO 06006KT 10SM CLR 12/09 A3009 RMK A01
KSUZ 261315Z AUTO 05005KT 10SM CLR 11/09 A3008 RMK A01
KSUZ 261255Z AUTO 05006KT 10SM FEW060 11/09 A3008 RMK A01
KSUZ 261235Z AUTO 06006KT 10SM BKN060 11/09 A3007 RMK A01
KSUZ 261215Z AUTO 05007KT 10SM OVC060 11/09 A3008 RMK A01
KSUZ 260755Z AUTO 06005G11KT 10SM CLR 13/10 A3004 RMK A01
KSUZ 260615Z AUTO 05009KT 10SM CLR 14/10 A3004 RMK A01
KSUZ 260515Z AUTO 05007KT 10SM CLR 15/10 A3004 RMK A01
KSUZ 260455Z AUTO 04006KT 10SM CLR 15/11 A3004 RMK A01
KSUZ 260435Z AUTO 04005KT 10SM CLR 14/11 A3004 RMK A01
KSUZ 260315Z AUTO 03004KT 10SM CLR 16/12 A3004 RMK A01
KSUZ 260255Z AUTO 03005KT 10SM CLR 15/13 A3004 RMK A01
KSUZ 260235Z AUTO 02007KT 10SM CLR 16/13 A3003 RMK A01
KSUZ 260215Z AUTO 03008KT 10SM CLR 16/13 A3002 RMK A01
KSUZ 260155Z AUTO 02006KT 10SM CLR 16/13 A3002 RMK A01
KSUZ 260135Z AUTO 01005KT 10SM CLR 16/13 A3002 RMK A01
KSUZ 260115Z AUTO 03004KT 10SM CLR 15/14 A3002 RMK A01
KSUZ 260055Z AUTO 00000KT 10SM CLR 17/13 A3001 RMK A01
KSUZ 260035Z AUTO 36003KT 10SM CLR 18/13 A3001 RMK A01
KSUZ 260015Z AUTO 00000KT 10SM CLR 17/13 A3000 RMK A01
KSUZ 252355Z AUTO 00000KT 10SM CLR 18/13 A2999 RMK A01
KSUZ 252335Z AUTO 03004KT 10SM CLR 19/13 A2999 RMK A01
KSUZ 252315Z AUTO 03004KT 10SM CLR 20/13 A2998 RMK A01
KSUZ 252255Z AUTO 03005KT 10SM CLR 22/12 A2998 RMK A01
KSUZ 252235Z AUTO 02005KT 10SM CLR 23/12 A2997 RMK A01
KSUZ 252215Z AUTO 02006KT 9SM CLR 24/11 A2997 RMK A01
KSUZ 252155Z AUTO 02006KT 9SM CLR 24/11 A2997 RMK A01
KSUZ 252135Z AUTO 36006KT 9SM CLR 24/11 A2996 RMK A01
KSUZ 252115Z AUTO 35008KT 9SM CLR 25/11 A2996 RMK A01
KSUZ 252055Z AUTO 02007KT 10SM CLR 25/11 A2995 RMK A01
KSUZ 252035Z AUTO 01004KT 10SM CLR 25/10 A2995 RMK A01
KSUZ 252015Z AUTO 35008KT 10SM CLR 25/09 A2995 RMK A01
KSUZ 251955Z AUTO 34007KT 280V020 10SM CLR 25/09 A2995 RMK A01
KSUZ 251935Z AUTO 30007G13KT 10SM CLR 25/09 A2995 RMK A01
KSUZ 251915Z AUTO 34008G14KT 310V010 10SM CLR 25/10 A2996 RMK A01
KSUZ 251855Z AUTO 32008G14KT 300V020 10SM CLR 25/10 A2996 RMK A01
KSUZ 251835Z AUTO 30008KT 10SM CLR 25/10 A2996 RMK A01
KSUZ 251815Z AUTO 31007G14KT 10SM CLR 24/10 A2997 RMK A01
KSUZ 251755Z AUTO 33008G16KT 10SM CLR 24/10 A2997 RMK A01
KSUZ 251735Z AUTO 33008G15KT 290V010 10SM CLR 24/11 A2998 RMK A01
KSUZ 251715Z AUTO 33008KT 300V360 10SM CLR 23/11 A2998 RMK A01
KSUZ 251655Z AUTO 30009G14KT 10SM CLR 23/12 A2998 RMK A01
KSUZ 251635Z AUTO 33009G16KT 10SM CLR 23/12 A2998 RMK A01
KSUZ 251615Z AUTO 34009KT 10SM CLR 22/12 A2998 RMK A01
KSUZ 251555Z AUTO 33007G13KT 290V360 10SM CLR 22/12 A2997 RMK A01
KSUZ 251535Z AUTO 34007KT 310V010 10SM CLR 21/13 A2997 RMK A01
KSUZ 251515Z AUTO 31007KT 10SM CLR 20/13 A2996 RMK A01
KSUZ 251455Z AUTO 32005KT 10SM CLR 20/14 A2996 RMK A01
KSUZ 251435Z AUTO 30005KT 10SM CLR 19/14 A2995 RMK A01
KSUZ 251415Z AUTO 00000KT 10SM CLR 18/15 A2995 RMK A01
KSUZ 251355Z AUTO VRB03KT 10SM CLR 17/16 A2995 RMK A01
KSUZ 251335Z AUTO 00000KT 10SM CLR 16/16 A2995 RMK A01
KSUZ 251315Z AUTO 00000KT 8SM CLR 15/15 A2995 RMK A01
KSUZ 251255Z AUTO 00000KT 2SM BR CLR 15/15 A2994 RMK A01 VIS 3/4V5
KSUZ 251235Z AUTO 00000KT 7SM CLR 14/14 A2994 RMK A01
KSUZ 251215Z AUTO 00000KT 3SM BR CLR 15/15 A2993 RMK A01
KSUZ 251035Z AUTO 00000KT 10SM CLR 17/17 A2992 RMK A01
KSUZ 251015Z AUTO 00000KT 10SM CLR 18/17 A2991 RMK A01
KSUZ 250955Z AUTO 00000KT 10SM CLR 18/17 A2990 RMK A01
KSUZ 250935Z AUTO 33003KT 10SM CLR 18/17 A2989 RMK A01
KSUZ 250915Z AUTO 31005KT 10SM CLR 19/18 A2989 RMK A01
KSUZ 250855Z AUTO 32008KT 10SM CLR 20/18 A2988 RMK A01
KSUZ 250835Z AUTO 30007KT 10SM FEW015 SCT060 BKN075 20/20 A2987 RMK A01
KSUZ 250815Z AUTO 27005KT 10SM BKN055 OVC070 21/20 A2986 RMK A01
KSUZ 250755Z AUTO 26004KT 10SM BKN050 BKN065 BKN075 21/21 A2985 RMK A01
KSUZ 250735Z AUTO 25004KT 10SM OVC048 21/21 A2985 RMK A01
KSUZ 250715Z AUTO 23005KT 9SM FEW006 SCT040 OVC047 21/21 A2984 RMK A01